RWL weather

Rawlins Municipal Airport/Harvey Field
Rawlins, Wyoming, United States

Public forecast

Using degrees Fahrenheit for public forecast. Weather courtesy of forecast.io.

METAR (pilot weather report)

Retrieved 2019/07/17 11:53 UTC (23 minutes ago):

KRWL 171153Z AUTO 00000KT 10SM CLR 11/08 A3009 RMK AO2 SLP086 60000 T01060083 10178 20106 53005

TAF (pilot weather forecast)

Retrieved 2019/07/17 12:24 UTC (0 seconds ago):

TAF KRWL 171120Z 1712/1812 32008KT P6SM FEW110 FM171600 25020G30KT P6SM SCT120 FM180100 27010KT P6SM SKC